sensor_id;sensor_type;location;lat;lon;timestamp;pressure;altitude;pressure_sealevel;temperature;humidity
21395;BME280;10858;42.714;23.180;2023-03-14T00:01:27;94602.38;;;0.24;75.97
21395;BME280;10858;42.714;23.180;2023-03-14T00:03:53;94605.91;;;0.23;75.24
21395;BME280;10858;42.714;23.180;2023-03-14T00:06:20;94603.22;;;0.06;76.31
21395;BME280;10858;42.714;23.180;2023-03-14T00:08:47;94599.16;;;-0.02;76.81
21395;BME280;10858;42.714;23.180;2023-03-14T00:11:21;94589.25;;;0.07;77.08
21395;BME280;10858;42.714;23.180;2023-03-14T00:13:50;94587.28;;;0.12;77.49
21395;BME280;10858;42.714;23.180;2023-03-14T00:16:17;94588.19;;;0.11;77.23
21395;BME280;10858;42.714;23.180;2023-03-14T00:18:44;94589.38;;;0.22;76.33
21395;BME280;10858;42.714;23.180;2023-03-14T00:21:11;94579.38;;;0.13;77.09
21395;BME280;10858;42.714;23.180;2023-03-14T00:23:38;94577.25;;;0.03;77.81
21395;BME280;10858;42.714;23.180;2023-03-14T00:26:07;94580.38;;;0.11;77.20
21395;BME280;10858;42.714;23.180;2023-03-14T00:28:34;94576.97;;;0.09;77.62
21395;BME280;10858;42.714;23.180;2023-03-14T00:31:03;94574.88;;;0.17;77.75
21395;BME280;10858;42.714;23.180;2023-03-14T00:33:30;94575.31;;;0.08;77.42
21395;BME280;10858;42.714;23.180;2023-03-14T00:35:58;94570.59;;;0.16;76.63
21395;BME280;10858;42.714;23.180;2023-03-14T00:38:26;94564.72;;;0.11;76.92
21395;BME280;10858;42.714;23.180;2023-03-14T00:40:53;94568.81;;;0.16;76.76
21395;BME280;10858;42.714;23.180;2023-03-14T00:43:20;94561.75;;;0.18;76.62
21395;BME280;10858;42.714;23.180;2023-03-14T00:45:50;94560.44;;;0.10;76.67
21395;BME280;10858;42.714;23.180;2023-03-14T00:48:18;94557.56;;;0.16;76.71
21395;BME280;10858;42.714;23.180;2023-03-14T00:50:44;94547.66;;;0.22;76.47
21395;BME280;10858;42.714;23.180;2023-03-14T00:53:11;94550.50;;;0.18;76.68
21395;BME280;10858;42.714;23.180;2023-03-14T00:55:39;94551.06;;;0.06;77.50
21395;BME280;10858;42.714;23.180;2023-03-14T00:58:06;94557.56;;;0.16;76.97
21395;BME280;10858;42.714;23.180;2023-03-14T01:00:32;94548.66;;;0.20;76.26
21395;BME280;10858;42.714;23.180;2023-03-14T01:02:59;94545.50;;;0.32;76.17
21395;BME280;10858;42.714;23.180;2023-03-14T01:05:25;94542.81;;;0.52;75.34
21395;BME280;10858;42.714;23.180;2023-03-14T01:07:51;94536.03;;;0.11;76.55
21395;BME280;10858;42.714;23.180;2023-03-14T01:10:17;94540.75;;;0.03;76.04
21395;BME280;10858;42.714;23.180;2023-03-14T01:12:43;94544.84;;;-0.11;76.71
21395;BME280;10858;42.714;23.180;2023-03-14T01:15:10;94536.91;;;-0.28;76.82
21395;BME280;10858;42.714;23.180;2023-03-14T01:17:36;94529.88;;;-0.26;77.41
21395;BME280;10858;42.714;23.180;2023-03-14T01:20:08;94524.53;;;-0.23;77.14
21395;BME280;10858;42.714;23.180;2023-03-14T01:22:36;94517.22;;;-0.15;76.78
21395;BME280;10858;42.714;23.180;2023-03-14T01:25:05;94517.22;;;-0.15;76.75
21395;BME280;10858;42.714;23.180;2023-03-14T01:27:32;94518.78;;;-0.11;76.22
21395;BME280;10858;42.714;23.180;2023-03-14T01:29:58;94523.25;;;-0.33;76.51
21395;BME280;10858;42.714;23.180;2023-03-14T01:32:24;94525.63;;;-0.47;77.64
21395;BME280;10858;42.714;23.180;2023-03-14T01:34:51;94513.72;;;-0.34;77.97
21395;BME280;10858;42.714;23.180;2023-03-14T01:37:18;94508.47;;;-0.32;77.56
21395;BME280;10858;42.714;23.180;2023-03-14T01:39:46;94509.09;;;-0.27;77.24
21395;BME280;10858;42.714;23.180;2023-03-14T01:42:12;94506.69;;;-0.32;77.25
21395;BME280;10858;42.714;23.180;2023-03-14T01:44:55;94505.59;;;-0.26;77.19
21395;BME280;10858;42.714;23.180;2023-03-14T01:47:22;94504.84;;;-0.30;77.01
21395;BME280;10858;42.714;23.180;2023-03-14T01:50:06;94494.28;;;-0.45;78.13
21395;BME280;10858;42.714;23.180;2023-03-14T01:52:42;94492.81;;;-0.14;77.41
21395;BME280;10858;42.714;23.180;2023-03-14T01:55:13;94483.50;;;-0.38;77.65
21395;BME280;10858;42.714;23.180;2023-03-14T01:57:58;94486.84;;;-0.34;77.54
21395;BME280;10858;42.714;23.180;2023-03-14T02:00:26;94487.03;;;-0.39;77.54
21395;BME280;10858;42.714;23.180;2023-03-14T02:02:58;94483.09;;;-0.47;77.93
21395;BME280;10858;42.714;23.180;2023-03-14T02:05:30;94484.63;;;-0.43;77.97
21395;BME280;10858;42.714;23.180;2023-03-14T02:08:00;94487.31;;;-0.45;77.42
21395;BME280;10858;42.714;23.180;2023-03-14T02:10:34;94488.25;;;-0.66;77.62
21395;BME280;10858;42.714;23.180;2023-03-14T02:13:04;94486.84;;;-0.73;78.46
21395;BME280;10858;42.714;23.180;2023-03-14T02:15:31;94486.16;;;-0.58;77.97
21395;BME280;10858;42.714;23.180;2023-03-14T02:17:58;94482.91;;;-0.63;78.59
21395;BME280;10858;42.714;23.180;2023-03-14T02:22:54;94490.94;;;-0.67;78.86
21395;BME280;10858;42.714;23.180;2023-03-14T02:27:59;94490.31;;;-0.54;77.93
21395;BME280;10858;42.714;23.180;2023-03-14T02:30:28;94493.78;;;-0.53;78.13
21395;BME280;10858;42.714;23.180;2023-03-14T02:33:06;94493.84;;;-0.55;78.62
21395;BME280;10858;42.714;23.180;2023-03-14T02:38:21;94487.84;;;-0.57;78.17
21395;BME280;10858;42.714;23.180;2023-03-14T02:40:50;94498.13;;;-0.54;78.09
21395;BME280;10858;42.714;23.180;2023-03-14T02:43:16;94494.03;;;-0.59;78.36
21395;BME280;10858;42.714;23.180;2023-03-14T02:45:43;94490.03;;;-0.48;78.04
21395;BME280;10858;42.714;23.180;2023-03-14T02:48:15;94491.56;;;-0.42;77.78
21395;BME280;10858;42.714;23.180;2023-03-14T02:50:43;94499.41;;;-0.44;77.95
21395;BME280;10858;42.714;23.180;2023-03-14T02:53:09;94496.97;;;-0.47;77.22
21395;BME280;10858;42.714;23.180;2023-03-14T02:55:37;94494.97;;;-0.60;77.27
21395;BME280;10858;42.714;23.180;2023-03-14T02:58:03;94495.16;;;-0.65;77.45
21395;BME280;10858;42.714;23.180;2023-03-14T03:00:30;94488.78;;;-0.78;78.60
21395;BME280;10858;42.714;23.180;2023-03-14T03:02:56;94491.53;;;-0.81;78.91
21395;BME280;10858;42.714;23.180;2023-03-14T03:05:22;94491.44;;;-0.79;78.77
21395;BME280;10858;42.714;23.180;2023-03-14T03:07:48;94500.19;;;-0.80;78.18
21395;BME280;10858;42.714;23.180;2023-03-14T03:10:15;94502.19;;;-0.67;78.41
21395;BME280;10858;42.714;23.180;2023-03-14T03:12:41;94504.03;;;-0.69;78.29
21395;BME280;10858;42.714;23.180;2023-03-14T03:15:08;94491.63;;;-0.64;78.00
21395;BME280;10858;42.714;23.180;2023-03-14T03:17:34;94495.69;;;-0.57;77.47
21395;BME280;10858;42.714;23.180;2023-03-14T03:20:00;94490.03;;;-0.66;77.57
21395;BME280;10858;42.714;23.180;2023-03-14T03:22:26;94492.09;;;-0.54;77.58
21395;BME280;10858;42.714;23.180;2023-03-14T03:24:52;94485.53;;;-0.63;77.14
21395;BME280;10858;42.714;23.180;2023-03-14T03:27:19;94488.66;;;-0.75;77.70
21395;BME280;10858;42.714;23.180;2023-03-14T03:29:45;94487.69;;;-0.72;77.61
21395;BME280;10858;42.714;23.180;2023-03-14T03:32:11;94487.22;;;-0.82;77.67
21395;BME280;10858;42.714;23.180;2023-03-14T03:34:37;94490.88;;;-0.86;77.86
21395;BME280;10858;42.714;23.180;2023-03-14T03:37:03;94495.50;;;-0.93;78.62
21395;BME280;10858;42.714;23.180;2023-03-14T03:39:30;94497.44;;;-0.98;78.77
21395;BME280;10858;42.714;23.180;2023-03-14T03:41:56;94494.78;;;-0.96;79.24
21395;BME280;10858;42.714;23.180;2023-03-14T03:44:22;94496.22;;;-0.89;78.35
21395;BME280;10858;42.714;23.180;2023-03-14T03:46:48;94493.72;;;-0.72;77.77
21395;BME280;10858;42.714;23.180;2023-03-14T03:49:14;94499.72;;;-0.90;78.23
21395;BME280;10858;42.714;23.180;2023-03-14T03:51:40;94490.88;;;-0.86;78.73
21395;BME280;10858;42.714;23.180;2023-03-14T03:54:07;94498.31;;;-0.97;79.23
21395;BME280;10858;42.714;23.180;2023-03-14T03:56:33;94498.66;;;-1.06;79.45
21395;BME280;10858;42.714;23.180;2023-03-14T03:58:59;94500.13;;;-0.99;79.38
21395;BME280;10858;42.714;23.180;2023-03-14T04:01:25;94502.53;;;-0.95;78.90
21395;BME280;10858;42.714;23.180;2023-03-14T04:03:51;94501.16;;;-1.03;78.94
21395;BME280;10858;42.714;23.180;2023-03-14T04:06:18;94499.09;;;-0.95;79.47
21395;BME280;10858;42.714;23.180;2023-03-14T04:08:44;94494.66;;;-0.73;78.04
21395;BME280;10858;42.714;23.180;2023-03-14T04:11:10;94490.97;;;-0.49;77.36
21395;BME280;10858;42.714;23.180;2023-03-14T04:13:37;94486.31;;;-0.61;77.81
21395;BME280;10858;42.714;23.180;2023-03-14T04:16:03;94476.50;;;-0.74;78.49
21395;BME280;10858;42.714;23.180;2023-03-14T04:18:29;94475.66;;;-0.36;76.92
21395;BME280;10858;42.714;23.180;2023-03-14T04:20:57;94477.56;;;-0.60;76.96
21395;BME280;10858;42.714;23.180;2023-03-14T04:23:25;94472.25;;;-0.77;77.08
21395;BME280;10858;42.714;23.180;2023-03-14T04:25:52;94472.66;;;-1.06;77.96
21395;BME280;10858;42.714;23.180;2023-03-14T04:28:19;94473.56;;;-0.87;77.76
21395;BME280;10858;42.714;23.180;2023-03-14T04:30:45;94465.34;;;-0.98;77.73
21395;BME280;10858;42.714;23.180;2023-03-14T04:33:11;94463.28;;;-0.90;77.42
21395;BME280;10858;42.714;23.180;2023-03-14T04:35:40;94459.72;;;-1.08;77.50
21395;BME280;10858;42.714;23.180;2023-03-14T04:38:06;94458.03;;;-1.29;79.23
21395;BME280;10858;42.714;23.180;2023-03-14T04:40:32;94449.22;;;-1.26;79.86
21395;BME280;10858;42.714;23.180;2023-03-14T04:42:58;94449.97;;;-1.23;79.45
21395;BME280;10858;42.714;23.180;2023-03-14T04:45:24;94448.84;;;-1.17;79.83
21395;BME280;10858;42.714;23.180;2023-03-14T04:47:50;94455.22;;;-1.04;79.36
21395;BME280;10858;42.714;23.180;2023-03-14T04:50:16;94454.91;;;-0.97;78.71
21395;BME280;10858;42.714;23.180;2023-03-14T04:52:43;94452.16;;;-0.94;79.29
21395;BME280;10858;42.714;23.180;2023-03-14T04:55:09;94441.19;;;-0.81;78.75
21395;BME280;10858;42.714;23.180;2023-03-14T04:57:35;94436.94;;;-0.64;78.54
21395;BME280;10858;42.714;23.180;2023-03-14T05:00:02;94448.03;;;-0.79;78.36
21395;BME280;10858;42.714;23.180;2023-03-14T05:02:32;94441.31;;;-0.46;78.60
21395;BME280;10858;42.714;23.180;2023-03-14T05:04:59;94441.56;;;-0.13;76.78
21395;BME280;10858;42.714;23.180;2023-03-14T05:07:25;94442.22;;;0.09;76.58
21395;BME280;10858;42.714;23.180;2023-03-14T05:09:51;94435.78;;;-0.38;76.74
21395;BME280;10858;42.714;23.180;2023-03-14T05:12:19;94441.69;;;-0.35;77.25
21395;BME280;10858;42.714;23.180;2023-03-14T05:14:46;94442.19;;;-0.27;77.50
21395;BME280;10858;42.714;23.180;2023-03-14T05:17:12;94440.25;;;0.14;78.18
21395;BME280;10858;42.714;23.180;2023-03-14T05:19:40;94439.97;;;0.73;77.43
21395;BME280;10858;42.714;23.180;2023-03-14T05:22:07;94432.53;;;1.00;76.04
21395;BME280;10858;42.714;23.180;2023-03-14T05:24:33;94432.63;;;1.31;75.25
21395;BME280;10858;42.714;23.180;2023-03-14T05:26:59;94436.13;;;1.95;72.55
21395;BME280;10858;42.714;23.180;2023-03-14T05:29:26;94434.41;;;2.72;68.37
21395;BME280;10858;42.714;23.180;2023-03-14T05:31:52;94446.56;;;4.03;64.78
21395;BME280;10858;42.714;23.180;2023-03-14T05:34:18;94429.06;;;6.48;60.11
21395;BME280;10858;42.714;23.180;2023-03-14T05:36:44;94432.75;;;8.08;53.19
21395;BME280;10858;42.714;23.180;2023-03-14T05:39:10;94428.63;;;8.93;49.37
21395;BME280;10858;42.714;23.180;2023-03-14T05:41:37;94427.91;;;8.91;49.22
21395;BME280;10858;42.714;23.180;2023-03-14T05:44:03;94424.78;;;10.62;47.23
21395;BME280;10858;42.714;23.180;2023-03-14T05:46:29;94426.69;;;9.37;45.68
21395;BME280;10858;42.714;23.180;2023-03-14T05:48:57;94437.00;;;9.09;45.09
21395;BME280;10858;42.714;23.180;2023-03-14T05:51:24;94435.63;;;9.25;46.16
21395;BME280;10858;42.714;23.180;2023-03-14T05:53:50;94432.06;;;9.15;44.97
21395;BME280;10858;42.714;23.180;2023-03-14T05:56:16;94419.53;;;9.17;45.52
21395;BME280;10858;42.714;23.180;2023-03-14T05:58:43;94423.22;;;9.26;45.46
21395;BME280;10858;42.714;23.180;2023-03-14T06:01:09;94426.56;;;9.60;43.33
21395;BME280;10858;42.714;23.180;2023-03-14T06:03:35;94425.16;;;11.06;40.81
21395;BME280;10858;42.714;23.180;2023-03-14T06:06:02;94426.00;;;12.22;38.85
21395;BME280;10858;42.714;23.180;2023-03-14T06:08:28;94425.63;;;12.53;37.08
21395;BME280;10858;42.714;23.180;2023-03-14T06:10:54;94425.00;;;12.23;37.07
21395;BME280;10858;42.714;23.180;2023-03-14T06:13:22;94420.66;;;12.68;36.12
21395;BME280;10858;42.714;23.180;2023-03-14T06:15:49;94418.19;;;13.56;34.46
21395;BME280;10858;42.714;23.180;2023-03-14T06:18:15;94424.88;;;12.70;35.82
21395;BME280;10858;42.714;23.180;2023-03-14T06:20:41;94427.63;;;13.06;35.61
21395;BME280;10858;42.714;23.180;2023-03-14T06:23:08;94422.53;;;14.18;33.08
21395;BME280;10858;42.714;23.180;2023-03-14T06:25:34;94423.44;;;15.19;31.64
21395;BME280;10858;42.714;23.180;2023-03-14T06:28:01;94415.09;;;15.72;30.09
21395;BME280;10858;42.714;23.180;2023-03-14T06:30:28;94419.31;;;16.55;29.99
21395;BME280;10858;42.714;23.180;2023-03-14T06:32:54;94419.78;;;17.14;29.74
21395;BME280;10858;42.714;23.180;2023-03-14T06:35:22;94417.69;;;19.05;27.18
21395;BME280;10858;42.714;23.180;2023-03-14T06:37:48;94416.25;;;16.66;28.20
21395;BME280;10858;42.714;23.180;2023-03-14T06:40:15;94411.38;;;18.68;26.14
21395;BME280;10858;42.714;23.180;2023-03-14T06:42:46;94408.38;;;17.81;26.14
21395;BME280;10858;42.714;23.180;2023-03-14T06:45:13;94403.47;;;18.52;26.52
21395;BME280;10858;42.714;23.180;2023-03-14T06:47:40;94397.56;;;20.65;23.05
21395;BME280;10858;42.714;23.180;2023-03-14T06:50:07;94398.09;;;20.54;23.01
21395;BME280;10858;42.714;23.180;2023-03-14T06:52:34;94390.75;;;19.63;24.14
21395;BME280;10858;42.714;23.180;2023-03-14T06:55:00;94395.56;;;19.68;24.72
21395;BME280;10858;42.714;23.180;2023-03-14T06:57:26;94391.16;;;20.02;24.31
21395;BME280;10858;42.714;23.180;2023-03-14T06:59:53;94387.75;;;17.81;26.37
21395;BME280;10858;42.714;23.180;2023-03-14T07:02:19;94386.13;;;16.64;27.34
21395;BME280;10858;42.714;23.180;2023-03-14T07:04:45;94390.34;;;16.51;28.72
21395;BME280;10858;42.714;23.180;2023-03-14T07:07:11;94401.25;;;15.93;29.66
21395;BME280;10858;42.714;23.180;2023-03-14T07:09:38;94391.19;;;15.71;30.18
21395;BME280;10858;42.714;23.180;2023-03-14T07:12:04;94393.69;;;15.56;30.20
21395;BME280;10858;42.714;23.180;2023-03-14T07:14:31;94393.34;;;15.09;30.38
21395;BME280;10858;42.714;23.180;2023-03-14T07:16:57;94387.81;;;17.04;28.07
21395;BME280;10858;42.714;23.180;2023-03-14T07:19:23;94393.88;;;15.87;29.86
21395;BME280;10858;42.714;23.180;2023-03-14T07:21:49;94382.50;;;15.93;30.56
21395;BME280;10858;42.714;23.180;2023-03-14T07:24:16;94385.03;;;15.12;30.82
21395;BME280;10858;42.714;23.180;2023-03-14T07:26:42;94374.94;;;14.90;32.10
21395;BME280;10858;42.714;23.180;2023-03-14T07:29:08;94378.31;;;14.59;32.12
21395;BME280;10858;42.714;23.180;2023-03-14T07:31:34;94377.28;;;15.01;35.14
21395;BME280;10858;42.714;23.180;2023-03-14T07:34:00;94377.16;;;16.01;30.06
21395;BME280;10858;42.714;23.180;2023-03-14T07:36:27;94373.16;;;15.81;30.10
21395;BME280;10858;42.714;23.180;2023-03-14T07:38:53;94367.44;;;15.52;31.36
21395;BME280;10858;42.714;23.180;2023-03-14T07:41:19;94375.63;;;16.14;29.88
21395;BME280;10858;42.714;23.180;2023-03-14T07:43:46;94377.16;;;15.85;29.83
21395;BME280;10858;42.714;23.180;2023-03-14T07:46:13;94374.63;;;17.64;28.27
21395;BME280;10858;42.714;23.180;2023-03-14T07:48:39;94370.78;;;16.02;30.23
21395;BME280;10858;42.714;23.180;2023-03-14T07:51:06;94363.66;;;17.96;28.84
21395;BME280;10858;42.714;23.180;2023-03-14T07:53:33;94352.53;;;17.54;27.66
21395;BME280;10858;42.714;23.180;2023-03-14T07:55:59;94357.13;;;17.15;28.44
21395;BME280;10858;42.714;23.180;2023-03-14T07:58:25;94357.16;;;16.60;29.07
21395;BME280;10858;42.714;23.180;2023-03-14T08:00:52;94352.94;;;18.48;26.32
21395;BME280;10858;42.714;23.180;2023-03-14T08:03:19;94349.41;;;17.12;28.03
21395;BME280;10858;42.714;23.180;2023-03-14T08:05:49;94341.88;;;16.76;28.46
21395;BME280;10858;42.714;23.180;2023-03-14T08:08:16;94348.41;;;17.13;28.30
21395;BME280;10858;42.714;23.180;2023-03-14T08:10:43;94342.91;;;17.06;28.41
21395;BME280;10858;42.714;23.180;2023-03-14T08:13:10;94345.22;;;16.78;28.97
21395;BME280;10858;42.714;23.180;2023-03-14T08:15:38;94349.66;;;16.47;29.24
21395;BME280;10858;42.714;23.180;2023-03-14T08:18:05;94353.72;;;16.19;29.95
21395;BME280;10858;42.714;23.180;2023-03-14T08:20:32;94355.59;;;15.86;31.86
21395;BME280;10858;42.714;23.180;2023-03-14T08:23:00;94351.75;;;15.57;31.18
21395;BME280;10858;42.714;23.180;2023-03-14T08:25:27;94353.41;;;15.74;31.23
21395;BME280;10858;42.714;23.180;2023-03-14T08:27:54;94351.06;;;17.21;29.77
21395;BME280;10858;42.714;23.180;2023-03-14T08:30:21;94341.31;;;16.26;30.54
21395;BME280;10858;42.714;23.180;2023-03-14T08:32:57;94336.63;;;15.40;32.39
21395;BME280;10858;42.714;23.180;2023-03-14T08:35:24;94331.81;;;15.35;31.82
21395;BME280;10858;42.714;23.180;2023-03-14T08:37:51;94324.47;;;15.69;31.77
21395;BME280;10858;42.714;23.180;2023-03-14T08:40:18;94328.00;;;15.78;31.61
21395;BME280;10858;42.714;23.180;2023-03-14T08:42:45;94316.34;;;14.97;32.50
21395;BME280;10858;42.714;23.180;2023-03-14T08:45:13;94311.56;;;15.24;32.10
21395;BME280;10858;42.714;23.180;2023-03-14T08:47:47;94311.00;;;14.89;32.74
21395;BME280;10858;42.714;23.180;2023-03-14T08:50:16;94306.59;;;15.46;33.11
21395;BME280;10858;42.714;23.180;2023-03-14T08:52:57;94303.44;;;15.66;33.35
21395;BME280;10858;42.714;23.180;2023-03-14T08:55:29;94300.56;;;16.00;31.32
21395;BME280;10858;42.714;23.180;2023-03-14T08:57:56;94293.84;;;15.40;34.06
21395;BME280;10858;42.714;23.180;2023-03-14T09:00:22;94290.91;;;15.51;32.53
21395;BME280;10858;42.714;23.180;2023-03-14T09:02:49;94277.31;;;15.28;32.45
21395;BME280;10858;42.714;23.180;2023-03-14T09:05:17;94271.78;;;15.21;32.09
21395;BME280;10858;42.714;23.180;2023-03-14T09:07:46;94277.44;;;14.86;33.99
21395;BME280;10858;42.714;23.180;2023-03-14T09:10:14;94276.28;;;14.47;33.27
21395;BME280;10858;42.714;23.180;2023-03-14T09:12:41;94274.31;;;14.57;32.39
21395;BME280;10858;42.714;23.180;2023-03-14T09:15:10;94264.09;;;15.02;33.17
21395;BME280;10858;42.714;23.180;2023-03-14T09:17:42;94260.09;;;15.06;32.28
21395;BME280;10858;42.714;23.180;2023-03-14T09:20:09;94254.75;;;14.98;32.68
21395;BME280;10858;42.714;23.180;2023-03-14T09:22:37;94250.75;;;14.03;33.87
21395;BME280;10858;42.714;23.180;2023-03-14T09:25:05;94238.69;;;14.74;34.70
21395;BME280;10858;42.714;23.180;2023-03-14T09:27:32;94239.66;;;14.73;32.46
21395;BME280;10858;42.714;23.180;2023-03-14T09:30:02;94240.53;;;14.82;32.71
21395;BME280;10858;42.714;23.180;2023-03-14T09:32:33;94227.91;;;15.48;31.16
21395;BME280;10858;42.714;23.180;2023-03-14T09:35:00;94224.66;;;16.40;29.70
21395;BME280;10858;42.714;23.180;2023-03-14T09:37:26;94226.88;;;15.49;31.64
21395;BME280;10858;42.714;23.180;2023-03-14T09:39:55;94222.25;;;15.43;29.21
21395;BME280;10858;42.714;23.180;2023-03-14T09:42:25;94215.16;;;15.74;30.03
21395;BME280;10858;42.714;23.180;2023-03-14T09:45:00;94205.25;;;16.38;30.05
21395;BME280;10858;42.714;23.180;2023-03-14T09:47:33;94206.66;;;16.17;29.92
21395;BME280;10858;42.714;23.180;2023-03-14T09:50:03;94208.53;;;16.86;28.40
21395;BME280;10858;42.714;23.180;2023-03-14T09:52:38;94194.06;;;16.95;27.02
21395;BME280;10858;42.714;23.180;2023-03-14T09:55:16;94199.03;;;17.44;26.63
21395;BME280;10858;42.714;23.180;2023-03-14T09:57:45;94192.81;;;17.29;27.92
21395;BME280;10858;42.714;23.180;2023-03-14T10:00:15;94174.09;;;17.95;26.95
21395;BME280;10858;42.714;23.180;2023-03-14T10:02:54;94177.59;;;18.39;26.80
21395;BME280;10858;42.714;23.180;2023-03-14T10:05:23;94164.81;;;18.12;25.77
21395;BME280;10858;42.714;23.180;2023-03-14T10:07:50;94165.75;;;17.61;28.51
21395;BME280;10858;42.714;23.180;2023-03-14T10:10:18;94174.00;;;17.14;26.40
21395;BME280;10858;42.714;23.180;2023-03-14T10:12:47;94157.91;;;17.14;27.22
21395;BME280;10858;42.714;23.180;2023-03-14T10:15:15;94147.63;;;17.92;26.41
21395;BME280;10858;42.714;23.180;2023-03-14T10:17:50;94131.31;;;18.08;26.88
21395;BME280;10858;42.714;23.180;2023-03-14T10:20:30;94128.25;;;18.26;26.40
21395;BME280;10858;42.714;23.180;2023-03-14T10:25:37;94117.88;;;17.50;28.04
21395;BME280;10858;42.714;23.180;2023-03-14T10:30:51;94116.63;;;16.63;27.77
21395;BME280;10858;42.714;23.180;2023-03-14T10:35:44;94099.75;;;16.24;28.47
21395;BME280;10858;42.714;23.180;2023-03-14T10:38:16;94093.03;;;17.70;27.49
21395;BME280;10858;42.714;23.180;2023-03-14T10:40:48;94087.53;;;16.97;26.79
21395;BME280;10858;42.714;23.180;2023-03-14T10:43:22;94075.78;;;17.94;26.10
21395;BME280;10858;42.714;23.180;2023-03-14T10:46:00;94080.06;;;18.03;26.62
21395;BME280;10858;42.714;23.180;2023-03-14T10:48:38;94076.66;;;18.66;25.94
21395;BME280;10858;42.714;23.180;2023-03-14T10:53:56;94072.28;;;18.44;25.29
21395;BME280;10858;42.714;23.180;2023-03-14T10:56:24;94063.66;;;18.48;26.59
21395;BME280;10858;42.714;23.180;2023-03-14T10:59:00;94054.19;;;18.95;25.49
21395;BME280;10858;42.714;23.180;2023-03-14T11:11:47;94022.72;;;18.89;24.38
21395;BME280;10858;42.714;23.180;2023-03-14T11:14:36;94016.91;;;18.64;23.90
21395;BME280;10858;42.714;23.180;2023-03-14T11:17:30;94009.19;;;18.76;25.12
21395;BME280;10858;42.714;23.180;2023-03-14T11:20:04;94003.75;;;19.52;24.89
21395;BME280;10858;42.714;23.180;2023-03-14T11:23:14;93986.97;;;19.16;24.19
21395;BME280;10858;42.714;23.180;2023-03-14T11:28:37;93987.28;;;19.06;23.96
21395;BME280;10858;42.714;23.180;2023-03-14T11:31:11;93979.41;;;19.67;22.77
21395;BME280;10858;42.714;23.180;2023-03-14T11:37:46;93959.81;;;20.46;23.44
21395;BME280;10858;42.714;23.180;2023-03-14T11:39:51;93952.53;;;20.33;22.55
21395;BME280;10858;42.714;23.180;2023-03-14T11:42:22;93956.00;;;19.61;23.37
21395;BME280;10858;42.714;23.180;2023-03-14T11:44:49;93948.75;;;19.61;22.78
21395;BME280;10858;42.714;23.180;2023-03-14T11:47:31;93941.84;;;19.99;22.94
21395;BME280;10858;42.714;23.180;2023-03-14T11:50:19;93937.41;;;20.32;21.98
21395;BME280;10858;42.714;23.180;2023-03-14T11:53:40;93927.88;;;21.28;23.41
21395;BME280;10858;42.714;23.180;2023-03-14T11:56:09;93927.06;;;20.56;21.88
21395;BME280;10858;42.714;23.180;2023-03-14T11:58:38;93923.56;;;21.07;22.20
21395;BME280;10858;42.714;23.180;2023-03-14T12:01:11;93906.47;;;21.90;21.06
21395;BME280;10858;42.714;23.180;2023-03-14T12:03:43;93898.69;;;22.14;20.47
21395;BME280;10858;42.714;23.180;2023-03-14T12:09:02;93887.97;;;22.32;21.19
21395;BME280;10858;42.714;23.180;2023-03-14T12:11:48;93882.13;;;22.35;21.88
21395;BME280;10858;42.714;23.180;2023-03-14T12:16:58;93877.38;;;21.48;22.65
21395;BME280;10858;42.714;23.180;2023-03-14T12:19:28;93869.81;;;20.93;23.62
21395;BME280;10858;42.714;23.180;2023-03-14T12:24:37;93855.53;;;20.73;24.17
21395;BME280;10858;42.714;23.180;2023-03-14T12:27:06;93857.22;;;20.48;23.75
21395;BME280;10858;42.714;23.180;2023-03-14T12:29:58;93852.38;;;21.08;23.55
21395;BME280;10858;42.714;23.180;2023-03-14T12:32:26;93845.28;;;21.21;23.43
21395;BME280;10858;42.714;23.180;2023-03-14T12:34:52;93841.66;;;22.28;22.85
21395;BME280;10858;42.714;23.180;2023-03-14T12:37:41;93835.03;;;22.49;23.24
21395;BME280;10858;42.714;23.180;2023-03-14T12:40:30;93820.06;;;21.90;22.34
21395;BME280;10858;42.714;23.180;2023-03-14T12:43:01;93813.13;;;22.32;22.92
21395;BME280;10858;42.714;23.180;2023-03-14T12:45:33;93802.44;;;22.68;22.73
21395;BME280;10858;42.714;23.180;2023-03-14T12:50:52;93791.06;;;22.35;22.36
21395;BME280;10858;42.714;23.180;2023-03-14T12:58:55;93776.22;;;22.20;22.18
21395;BME280;10858;42.714;23.180;2023-03-14T13:01:27;93782.84;;;23.09;21.87
21395;BME280;10858;42.714;23.180;2023-03-14T13:03:56;93783.66;;;23.34;21.53
21395;BME280;10858;42.714;23.180;2023-03-14T13:06:52;93778.09;;;23.59;21.41
21395;BME280;10858;42.714;23.180;2023-03-14T13:12:01;93760.31;;;22.97;21.64
21395;BME280;10858;42.714;23.180;2023-03-14T13:14:31;93761.66;;;22.45;22.73
21395;BME280;10858;42.714;23.180;2023-03-14T13:17:02;93752.38;;;21.85;22.81
21395;BME280;10858;42.714;23.180;2023-03-14T13:19:33;93749.41;;;21.93;22.23
21395;BME280;10858;42.714;23.180;2023-03-14T13:22:04;93741.00;;;22.08;22.55
21395;BME280;10858;42.714;23.180;2023-03-14T13:24:35;93730.25;;;22.02;22.22
21395;BME280;10858;42.714;23.180;2023-03-14T13:27:01;93733.06;;;22.56;21.59
21395;BME280;10858;42.714;23.180;2023-03-14T13:29:31;93731.59;;;22.35;22.12
21395;BME280;10858;42.714;23.180;2023-03-14T13:32:01;93723.31;;;23.09;20.67
21395;BME280;10858;42.714;23.180;2023-03-14T13:34:34;93719.72;;;22.97;20.61
21395;BME280;10858;42.714;23.180;2023-03-14T13:37:01;93715.75;;;22.81;21.26
21395;BME280;10858;42.714;23.180;2023-03-14T13:39:30;93709.28;;;23.67;22.17
21395;BME280;10858;42.714;23.180;2023-03-14T13:42:00;93698.44;;;24.08;19.54
21395;BME280;10858;42.714;23.180;2023-03-14T13:44:38;93692.81;;;23.80;20.30
21395;BME280;10858;42.714;23.180;2023-03-14T13:47:11;93689.16;;;23.86;19.91
21395;BME280;10858;42.714;23.180;2023-03-14T13:49:45;93674.94;;;23.31;20.06
21395;BME280;10858;42.714;23.180;2023-03-14T13:52:35;93672.84;;;22.85;21.31
21395;BME280;10858;42.714;23.180;2023-03-14T13:55:04;93674.63;;;21.94;21.75
21395;BME280;10858;42.714;23.180;2023-03-14T13:57:52;93667.44;;;20.75;23.42